Time;durP1;ratioP1;P1;durP2;ratioP2;P2;SDS_P1;SDS_P2;PMS_P1;PMS_P2;Temp;Humidity;BMP_temperature;BMP_pressure;BME280_temperature;BME280_humidity;BME280_pressure;Samples;Min_cycle;Max_cycle;Signal;HPM_P1;HPM_P2
2022/07/14 00:00:29;;;;;;;2.35;1.05;;;;;;;14.47;57.25;96772.91;5114786;28;20126;-61
2022/07/14 00:02:58;;;;;;;1.88;1.02;;;;;;;14.41;57.51;96771.44;5114701;28;20043;-60
2022/07/14 00:05:25;;;;;;;2.35;1.08;;;;;;;14.36;57.62;96771.69;5114628;28;20097;-61
2022/07/14 00:07:52;;;;;;;1.55;1.00;;;;;;;14.34;58.16;96776.19;5114585;28;20048;-61
2022/07/14 00:10:19;;;;;;;2.70;0.93;;;;;;;14.37;58.12;96773.41;5114829;28;20051;-61
2022/07/14 00:12:46;;;;;;;2.60;1.30;;;;;;;14.36;58.19;96771.69;5114549;28;20450;-61
2022/07/14 00:15:13;;;;;;;5.07;1.10;;;;;;;14.34;58.28;96770.91;5114545;28;20058;-61
2022/07/14 00:17:40;;;;;;;5.97;1.00;;;;;;;14.33;58.35;96771.81;5114565;28;20054;-61
2022/07/14 00:20:10;;;;;;;3.00;1.20;;;;;;;14.35;58.55;96775.25;5114457;28;20127;-61
2022/07/14 00:22:40;;;;;;;3.47;1.33;;;;;;;14.36;58.19;96776.94;5114390;28;20123;-61
2022/07/14 00:25:08;;;;;;;1.80;0.90;;;;;;;14.38;58.23;96769.84;5114303;28;20641;-61
2022/07/14 00:27:36;;;;;;;2.15;1.00;;;;;;;14.39;57.35;96771.53;5114110;28;20139;-60
2022/07/14 00:30:03;;;;;;;1.13;1.02;;;;;;;14.27;56.77;96777.41;5114268;28;20089;-61
2022/07/14 00:32:30;;;;;;;2.17;1.00;;;;;;;14.27;56.88;96780.88;5114167;28;20477;-61
2022/07/14 00:34:57;;;;;;;1.13;1.02;;;;;;;14.34;57.43;96776.19;5114164;28;20086;-60
2022/07/14 00:37:26;;;;;;;1.77;1.08;;;;;;;14.39;57.41;96782.06;5114181;28;20092;-61
2022/07/14 00:39:56;;;;;;;3.95;1.05;;;;;;;14.36;57.71;96778.75;5114034;28;20054;-61
2022/07/14 00:42:32;;;;;;;2.00;1.27;;;;;;;14.37;57.98;96783.06;5114065;28;20066;-61
2022/07/14 00:45:00;;;;;;;1.30;1.05;;;;;;;14.28;58.07;96789.63;5114021;28;20292;-61
2022/07/14 00:47:27;;;;;;;1.20;0.88;;;;;;;14.22;58.25;96782.03;5113603;28;20059;-61
2022/07/14 00:49:55;;;;;;;4.30;1.15;;;;;;;14.14;59.05;96782.41;5114074;28;20054;-61
2022/07/14 00:52:24;;;;;;;1.73;1.17;;;;;;;14.15;59.06;96778.88;5113944;28;20090;-60
2022/07/14 00:54:52;;;;;;;1.00;0.82;;;;;;;14.06;58.97;96777.50;5113767;28;20082;-61
2022/07/14 00:57:20;;;;;;;2.30;1.15;;;;;;;14.08;59.22;96782.69;5113824;28;20421;-61
2022/07/14 00:59:47;;;;;;;4.20;1.10;;;;;;;14.09;59.14;96782.63;5113735;28;20105;-60
2022/07/14 01:02:14;;;;;;;1.50;1.30;;;;;;;14.08;59.28;96780.94;5113655;28;20047;-61
2022/07/14 01:04:41;;;;;;;1.00;1.00;;;;;;;13.99;59.29;96774.34;5113675;28;20409;-61
2022/07/14 01:07:08;;;;;;;1.45;1.15;;;;;;;13.99;59.14;96774.34;5113669;28;20067;-60
2022/07/14 01:09:35;;;;;;;1.38;1.27;;;;;;;14.04;59.46;96776.75;5113635;28;20039;-61
2022/07/14 01:12:04;;;;;;;1.60;1.30;;;;;;;14.01;59.43;96775.13;5113619;28;20122;-61
2022/07/14 01:14:31;;;;;;;1.00;1.00;;;;;;;14.01;59.35;96777.75;5113592;28;20043;-61
2022/07/14 01:16:59;;;;;;;1.73;1.17;;;;;;;14.02;59.22;96775.97;5113637;28;20043;-61
2022/07/14 01:19:26;;;;;;;2.13;1.20;;;;;;;13.96;59.32;96778.88;5113512;28;20481;-61
2022/07/14 01:21:56;;;;;;;1.48;1.30;;;;;;;13.93;59.63;96779.88;5113641;28;20050;-61
2022/07/14 01:24:24;;;;;;;4.65;1.08;;;;;;;13.82;59.62;96774.31;5113525;28;20054;-61
2022/07/14 01:26:51;;;;;;;1.80;1.10;;;;;;;13.79;59.85;96777.06;5113355;28;20584;-61
2022/07/14 01:29:19;;;;;;;2.22;1.25;;;;;;;13.74;59.99;96772.91;5113385;28;20043;-60
2022/07/14 01:31:46;;;;;;;2.92;1.45;;;;;;;13.73;59.99;96773.78;5113466;28;20043;-61
2022/07/14 01:34:13;;;;;;;1.65;1.10;;;;;;;13.75;59.92;96778.97;5113356;28;20412;-61
2022/07/14 01:36:41;;;;;;;5.20;0.95;;;;;;;13.83;60.01;96779.50;5113407;28;20126;-60
2022/07/14 01:39:09;;;;;;;1.13;1.10;;;;;;;13.85;59.78;96780.25;5113382;28;20048;-61
2022/07/14 01:41:37;;;;;;;1.85;1.05;;;;;;;13.79;59.63;96766.56;5113277;28;20153;-61
2022/07/14 01:44:04;;;;;;;1.52;1.15;;;;;;;13.85;59.78;96777.63;5113448;28;20108;-61
2022/07/14 01:46:31;;;;;;;1.52;1.08;;;;;;;13.86;60.07;96779.34;5113208;28;20516;-61
2022/07/14 01:48:58;;;;;;;6.45;1.50;;;;;;;13.90;60.16;96780.91;5113427;28;20048;-60
2022/07/14 01:51:25;;;;;;;3.72;1.25;;;;;;;13.97;60.68;96784.06;5113359;28;20043;-61
2022/07/14 01:53:52;;;;;;;1.00;1.00;;;;;;;13.99;60.64;96773.47;5113281;28;20082;-60
2022/07/14 01:56:22;;;;;;;2.10;1.40;;;;;;;13.96;60.54;96786.78;5113171;28;20071;-60
2022/07/14 01:58:49;;;;;;;1.40;1.20;;;;;;;13.92;60.53;96780.81;5113199;28;20083;-61
2022/07/14 02:04:02;;;;;;;2.70;1.63;;;;;;;13.74;60.26;96783.41;5117261;28;20193;-60
2022/07/14 02:06:30;;;;;;;2.70;1.33;;;;;;;13.71;60.15;96780.91;5117015;28;20048;-61
2022/07/14 02:08:57;;;;;;;4.72;1.08;;;;;;;13.63;60.74;96781.28;5117030;28;20043;-61
2022/07/14 02:14:10;;;;;;;1.63;1.20;;;;;;;13.76;60.40;96786.78;5116971;28;20069;-61
2022/07/14 02:16:37;;;;;;;5.68;1.23;;;;;;;13.81;61.00;96785.75;5116789;28;20105;-61
2022/07/14 02:19:04;;;;;;;1.27;1.15;;;;;;;13.89;61.30;96788.84;5116813;28;20112;-60
2022/07/14 02:21:31;;;;;;;1.38;1.10;;;;;;;13.92;61.30;96793.13;5116924;28;20231;-61
2022/07/14 02:23:59;;;;;;;2.85;1.30;;;;;;;13.92;61.07;96798.38;5116766;28;20048;-60
2022/07/14 02:26:28;;;;;;;1.38;1.23;;;;;;;13.92;61.25;96799.22;5116560;28;20101;-60
2022/07/14 02:28:55;;;;;;;1.55;1.20;;;;;;;13.96;61.07;96802.56;5116637;28;20039;-60
2022/07/14 02:31:22;;;;;;;2.03;1.10;;;;;;;13.96;60.95;96806.03;5116526;28;20083;-61
2022/07/14 02:33:49;;;;;;;3.70;1.40;;;;;;;13.97;60.97;96801.66;5116471;28;20089;-60
2022/07/14 02:36:17;;;;;;;2.33;1.33;;;;;;;13.97;60.92;96809.53;5116590;28;20097;-60
2022/07/14 02:38:44;;;;;;;5.22;1.15;;;;;;;13.95;61.23;96800.84;5116466;28;20086;-61
2022/07/14 02:41:11;;;;;;;2.00;1.38;;;;;;;13.91;61.47;96805.44;5116369;27;20073;-61
2022/07/14 02:43:40;;;;;;;1.35;1.23;;;;;;;13.81;61.53;96810.25;5116379;28;20044;-61
2022/07/14 02:46:07;;;;;;;8.18;1.20;;;;;;;13.82;61.43;96804.06;5116454;28;20075;-60
2022/07/14 02:48:35;;;;;;;2.58;1.52;;;;;;;13.71;61.83;96811.59;5116064;28;20409;-60
2022/07/14 02:51:04;;;;;;;1.45;1.30;;;;;;;13.76;61.60;96804.38;5116190;28;20473;-61
2022/07/14 02:53:32;;;;;;;3.90;1.38;;;;;;;13.81;61.52;96806.78;5116176;28;20043;-60
2022/07/14 02:56:00;;;;;;;4.15;1.20;;;;;;;13.81;61.43;96812.88;5116003;28;20054;-61
2022/07/14 02:58:27;;;;;;;2.83;1.38;;;;;;;13.83;61.55;96813.66;5115967;28;20048;-61
2022/07/14 03:00:56;;;;;;;1.23;1.13;;;;;;;13.85;61.40;96811.81;5115954;28;20455;-61
2022/07/14 03:03:23;;;;;;;6.75;1.45;;;;;;;13.85;61.26;96811.81;5116007;28;20050;-61
2022/07/14 03:05:51;;;;;;;3.08;1.40;;;;;;;13.91;60.81;96818.56;5115962;28;20043;-60
2022/07/14 03:08:18;;;;;;;3.80;1.20;;;;;;;13.95;60.53;96816.63;5115776;28;20140;-60
2022/07/14 03:10:46;;;;;;;6.85;1.33;;;;;;;13.97;60.82;96815.63;5115594;28;20409;-61
2022/07/14 03:13:13;;;;;;;3.78;1.25;;;;;;;13.98;60.98;96814.72;5114922;28;20047;-61
2022/07/14 03:15:40;;;;;;;3.85;1.23;;;;;;;13.99;60.88;96818.19;5115793;28;20044;-61
2022/07/14 03:18:08;;;;;;;3.00;1.50;;;;;;;13.97;61.47;96817.44;5115900;28;20397;-61
2022/07/14 03:20:35;;;;;;;1.15;1.05;;;;;;;13.96;61.57;96816.56;5115546;28;20101;-61
2022/07/14 03:23:02;;;;;;;1.65;1.00;;;;;;;13.94;61.15;96815.78;5115559;28;20101;-61
2022/07/14 03:25:29;;;;;;;1.35;1.17;;;;;;;13.97;61.82;96814.78;5115480;28;20096;-60
2022/07/14 03:27:58;;;;;;;3.25;1.30;;;;;;;13.92;61.44;96816.78;5115379;28;20146;-61
2022/07/14 03:30:26;;;;;;;3.08;1.48;;;;;;;13.88;61.91;96816.91;5115421;28;20048;-60
2022/07/14 03:32:54;;;;;;;3.28;1.30;;;;;;;13.88;62.19;96814.28;5115443;27;20047;-61
2022/07/14 03:35:23;;;;;;;1.88;1.55;;;;;;;13.93;62.43;96818.50;5115415;28;20044;-60
2022/07/14 03:37:51;;;;;;;4.35;1.23;;;;;;;13.96;62.16;96815.69;5115287;28;20071;-61
2022/07/14 03:40:18;;;;;;;3.85;1.38;;;;;;;13.98;62.13;96819.13;5115321;28;20481;-61
2022/07/14 03:42:45;;;;;;;3.53;1.10;;;;;;;14.11;62.30;96825.50;5115192;28;20117;-60
2022/07/14 03:45:13;;;;;;;2.58;1.23;;;;;;;14.36;61.72;96818.22;5115256;28;20047;-61
2022/07/14 03:47:43;;;;;;;5.50;1.48;;;;;;;14.70;61.18;96823.56;5114680;28;20056;-61
2022/07/14 03:50:13;;;;;;;1.15;1.02;;;;;;;15.08;59.62;96820.78;5115175;28;20052;-61
2022/07/14 03:52:42;;;;;;;5.00;1.10;;;;;;;15.51;58.20;96822.94;5115119;28;20081;-60
2022/07/14 03:55:09;;;;;;;3.13;1.30;;;;;;;16.00;57.08;96823.88;5114956;28;20047;-61
2022/07/14 03:57:37;;;;;;;3.65;1.27;;;;;;;16.49;55.64;96829.94;5115046;28;20043;-61
2022/07/14 04:00:06;;;;;;;4.50;1.30;;;;;;;16.98;53.54;96828.00;5114942;28;20054;-61
2022/07/14 04:02:33;;;;;;;3.78;1.15;;;;;;;17.43;52.94;96828.00;5114763;28;20048;-61
2022/07/14 04:05:00;;;;;;;3.90;1.30;;;;;;;17.92;52.04;96828.56;5114685;28;20083;-61
2022/07/14 04:07:27;;;;;;;2.35;1.10;;;;;;;18.26;50.51;96822.03;5114743;28;20096;-61
2022/07/14 04:09:56;;;;;;;7.63;1.00;;;;;;;18.71;49.98;96831.50;5114612;28;20451;-61
2022/07/14 04:12:23;;;;;;;2.80;1.17;;;;;;;19.15;49.06;96830.34;5114550;28;20047;-61
2022/07/14 04:14:51;;;;;;;17.95;2.35;;;;;;;19.60;47.63;96825.56;5114934;28;20048;-61
2022/07/14 04:17:18;;;;;;;23.83;3.20;;;;;;;19.98;47.81;96826.47;5114608;28;20503;-62
2022/07/14 04:19:45;;;;;;;3.15;1.20;;;;;;;20.33;46.49;96821.28;5114641;28;20044;-61
2022/07/14 04:22:13;;;;;;;8.07;1.65;;;;;;;20.74;46.04;96825.41;5114778;28;20398;-61
2022/07/14 04:24:41;;;;;;;8.00;1.40;;;;;;;21.10;45.76;96828.09;5114024;28;20447;-61
2022/07/14 04:27:09;;;;;;;7.10;1.30;;;;;;;21.46;45.06;96824.38;5114269;28;20146;-61
2022/07/14 04:29:36;;;;;;;7.25;0.90;;;;;;;21.80;44.45;96820.94;5114279;28;20082;-62
2022/07/14 04:32:04;;;;;;;3.00;0.90;;;;;;;22.17;44.01;96821.56;5114302;28;20054;-62
2022/07/14 04:34:31;;;;;;;5.43;1.50;;;;;;;22.55;43.02;96816.75;5114122;28;20039;-62
2022/07/14 04:36:58;;;;;;;1.35;1.08;;;;;;;22.90;43.50;96828.16;5114146;28;20063;-61
2022/07/14 04:39:25;;;;;;;8.18;1.13;;;;;;;23.32;42.64;96825.47;5114359;28;20051;-62
2022/07/14 04:41:53;;;;;;;2.65;1.08;;;;;;;23.64;41.94;96822.84;5114141;28;20075;-61
2022/07/14 04:44:21;;;;;;;9.52;1.20;;;;;;;24.01;41.66;96829.41;5114140;28;20048;-61
2022/07/14 04:46:48;;;;;;;1.33;0.88;;;;;;;24.23;40.88;96829.22;5113768;28;20059;-62
2022/07/14 04:52:02;;;;;;;2.83;1.00;;;;;;;24.99;39.69;96826.91;5114034;28;20148;-62
2022/07/14 04:54:30;;;;;;;1.00;0.90;;;;;;;25.29;39.37;96836.72;5113985;28;20090;-62
2022/07/14 04:56:57;;;;;;;1.85;0.95;;;;;;;25.61;39.08;96830.16;5113859;28;20086;-62
2022/07/14 04:59:26;;;;;;;5.63;1.10;;;;;;;25.87;38.51;96832.19;5113841;28;20055;-62
2022/07/14 05:01:53;;;;;;;1.70;1.10;;;;;;;26.21;37.83;96830.72;5113748;28;20536;-62
2022/07/14 05:04:21;;;;;;;5.35;0.90;;;;;;;26.41;37.23;96839.53;5113996;28;20052;-62
2022/07/14 05:06:49;;;;;;;3.20;1.10;;;;;;;26.67;36.81;96837.94;5113847;28;20096;-62
2022/07/14 05:09:18;;;;;;;2.92;1.00;;;;;;;26.85;34.79;96833.41;5113700;28;20062;-62
2022/07/14 05:11:45;;;;;;;2.60;0.90;;;;;;;27.09;34.65;96831.13;5113675;28;20097;-62
2022/07/14 05:14:13;;;;;;;5.88;1.02;;;;;;;27.33;34.68;96835.81;5113687;28;20083;-62
2022/07/14 05:16:44;;;;;;;5.60;1.15;;;;;;;27.60;33.90;96830.44;5113516;28;20070;-62
2022/07/14 05:19:11;;;;;;;1.70;0.90;;;;;;;27.83;34.41;96830.75;5113526;28;20062;-62
2022/07/14 05:21:38;;;;;;;2.67;0.90;;;;;;;28.10;35.39;96838.75;5113652;28;20051;-62
2022/07/14 05:24:06;;;;;;;3.35;0.80;;;;;;;28.33;35.90;96839.03;5113784;28;20448;-61
2022/07/14 05:26:33;;;;;;;4.40;1.42;;;;;;;28.36;35.82;96835.16;5113550;28;20049;-62
2022/07/14 05:29:00;;;;;;;2.15;1.05;;;;;;;28.54;34.81;96829.66;5113400;28;20558;-62
2022/07/14 05:31:27;;;;;;;5.18;0.73;;;;;;;28.90;35.96;96836.59;5113445;28;20054;-62
2022/07/14 05:33:56;;;;;;;2.95;0.80;;;;;;;29.05;32.82;96839.50;5113545;28;20135;-62
2022/07/14 05:36:24;;;;;;;3.35;0.80;;;;;;;29.12;29.09;96843.19;5116812;28;20059;-62
2022/07/14 05:38:52;;;;;;;3.22;1.20;;;;;;;29.01;28.80;96848.88;5117792;28;20048;-62
2022/07/14 05:41:19;;;;;;;4.63;1.00;;;;;;;28.93;26.67;96843.47;5117608;28;20092;-62
2022/07/14 05:43:46;;;;;;;5.82;0.90;;;;;;;28.90;28.54;96847.34;5117455;28;20075;-62
2022/07/14 05:46:14;;;;;;;4.25;0.90;;;;;;;28.85;27.46;96855.94;5117568;27;20175;-62
2022/07/14 05:48:42;;;;;;;3.05;0.75;;;;;;;28.68;27.12;96849.69;5117044;28;20055;-62
2022/07/14 05:51:13;;;;;;;8.43;1.17;;;;;;;28.80;29.25;96850.19;5117319;28;20130;-62
2022/07/14 05:53:41;;;;;;;5.80;1.10;;;;;;;29.06;29.27;96856.47;5117295;28;20482;-62
2022/07/14 05:56:10;;;;;;;1.70;1.00;;;;;;;29.36;27.21;96857.63;5117208;28;20054;-62
2022/07/14 05:58:38;;;;;;;2.38;0.82;;;;;;;29.12;26.74;96853.94;5117206;28;20046;-62
2022/07/14 06:01:07;;;;;;;2.83;1.00;;;;;;;29.29;26.65;96861.16;5117149;28;20058;-62
2022/07/14 06:03:34;;;;;;;8.82;1.08;;;;;;;29.60;26.73;96858.63;5117028;28;20545;-62
2022/07/14 06:06:02;;;;;;;4.68;0.90;;;;;;;29.71;27.00;96856.59;5117098;28;20375;-61
2022/07/14 06:08:30;;;;;;;3.35;1.00;;;;;;;29.85;25.87;96853.16;5116939;28;20104;-62
2022/07/14 06:10:58;;;;;;;4.30;0.90;;;;;;;30.06;25.35;96857.13;5117059;28;20495;-62
2022/07/14 06:13:26;;;;;;;9.68;1.27;;;;;;;30.02;25.35;96862.03;5117128;28;20055;-62
2022/07/14 06:15:53;;;;;;;10.30;1.15;;;;;;;29.59;26.14;96864.19;5116959;28;20101;-62
2022/07/14 06:18:21;;;;;;;7.13;1.00;;;;;;;29.74;26.24;96865.16;5116862;28;20510;-61
2022/07/14 06:20:48;;;;;;;5.25;1.15;;;;;;;29.83;26.85;96865.97;5116840;28;20079;-62
2022/07/14 06:23:16;;;;;;;4.82;1.13;;;;;;;30.05;26.72;96860.84;5116705;28;20075;-62
2022/07/14 06:25:44;;;;;;;5.93;1.10;;;;;;;30.34;25.98;96861.25;5116736;28;20082;-62
2022/07/14 06:28:12;;;;;;;5.95;1.13;;;;;;;30.48;25.64;96857.81;5116501;28;20044;-62
2022/07/14 06:30:40;;;;;;;3.95;0.80;;;;;;;30.57;25.88;96863.13;5116623;28;20130;-60
2022/07/14 06:33:07;;;;;;;0.95;0.82;;;;;;;30.59;24.95;96858.41;5116485;28;20050;-62
2022/07/14 06:35:34;;;;;;;6.63;1.10;;;;;;;30.49;24.72;96859.47;5116537;28;20051;-61
2022/07/14 06:38:01;;;;;;;3.28;1.35;;;;;;;30.31;25.36;96859.72;5116474;28;20056;-62
2022/07/14 06:40:28;;;;;;;1.88;1.20;;;;;;;29.97;26.77;96866.25;5116607;28;20051;-62
2022/07/14 06:42:57;;;;;;;1.52;1.00;;;;;;;29.91;25.93;96858.88;5116379;28;20493;-62
2022/07/14 06:45:24;;;;;;;1.48;0.95;;;;;;;30.29;25.57;96863.63;5116232;28;20105;-62
2022/07/14 06:47:51;;;;;;;3.67;1.10;;;;;;;30.07;25.30;96863.38;5115986;28;20789;-62
2022/07/14 06:50:18;;;;;;;8.20;1.27;;;;;;;30.13;25.94;96859.97;5116163;28;20047;-61
2022/07/14 06:52:46;;;;;;;3.60;0.90;;;;;;;30.21;25.78;96861.81;5116145;28;20127;-62
2022/07/14 06:55:13;;;;;;;16.90;2.58;;;;;;;30.55;24.00;96867.88;5116143;28;20101;-62
2022/07/14 06:57:41;;;;;;;3.08;0.90;;;;;;;31.04;24.22;96855.09;5116177;28;20055;-62
2022/07/14 07:00:11;;;;;;;9.90;0.90;;;;;;;31.40;23.95;96843.66;5116024;28;20062;-62
2022/07/14 07:02:40;;;;;;;3.22;1.20;;;;;;;31.64;22.60;96847.13;5115962;28;20040;-61
2022/07/14 07:07:56;;;;;;;0.77;0.77;;;;;;;31.74;23.63;96850.41;5115885;28;20054;-61
2022/07/14 07:10:24;;;;;;;3.22;0.80;;;;;;;31.60;22.47;96846.66;5115897;28;20138;-61
2022/07/14 07:12:51;;;;;;;6.80;1.00;;;;;;;31.61;22.27;96842.09;5115810;28;20047;-61
2022/07/14 07:15:20;;;;;;;4.22;1.20;;;;;;;31.00;22.80;96841.94;5115712;28;20439;-62
2022/07/14 07:17:48;;;;;;;2.85;0.85;;;;;;;30.44;24.01;96844.84;5115772;28;20044;-62
2022/07/14 07:20:16;;;;;;;6.55;1.20;;;;;;;30.10;23.51;96839.56;5115827;28;20055;-61
2022/07/14 07:22:43;;;;;;;2.45;0.90;;;;;;;30.07;23.81;96844.50;5115713;28;20086;-62
2022/07/14 07:25:12;;;;;;;1.50;0.90;;;;;;;30.08;24.49;96841.63;5115649;28;20047;-62
2022/07/14 07:27:39;;;;;;;2.85;1.13;;;;;;;30.19;23.10;96840.41;5115628;28;20048;-61
2022/07/14 07:30:08;;;;;;;8.75;1.02;;;;;;;29.87;24.28;96843.06;5115560;28;20052;-61
2022/07/14 07:32:37;;;;;;;3.90;0.90;;;;;;;29.83;24.47;96840.88;5115466;28;20047;-61
2022/07/14 07:35:05;;;;;;;1.02;0.70;;;;;;;30.06;23.29;96843.66;5115554;28;20101;-62
2022/07/14 07:37:33;;;;;;;2.47;0.80;;;;;;;29.87;22.50;96842.22;5115417;28;20409;-61
2022/07/14 07:40:01;;;;;;;3.03;1.02;;;;;;;29.76;23.68;96838.03;5115298;28;20122;-62
2022/07/14 07:42:28;;;;;;;2.63;0.68;;;;;;;29.84;22.70;96829.94;5115205;28;20054;-62
2022/07/14 07:44:56;;;;;;;0.93;0.82;;;;;;;30.27;23.09;96829.59;5115256;28;20059;-61
2022/07/14 07:47:24;;;;;;;1.95;0.80;;;;;;;30.41;22.96;96831.72;5115008;28;20574;-61
2022/07/14 07:49:53;;;;;;;1.08;0.82;;;;;;;30.46;22.51;96829.31;5114994;28;20051;-61
2022/07/14 07:52:21;;;;;;;2.05;0.70;;;;;;;30.03;20.97;96830.50;5115169;27;20108;-61
2022/07/14 07:54:49;;;;;;;1.98;0.70;;;;;;;29.71;21.53;96824.25;5115092;28;20461;-61
2022/07/14 07:57:17;;;;;;;1.55;0.90;;;;;;;29.65;21.92;96828.47;5114592;28;20051;-61
2022/07/14 07:59:44;;;;;;;1.88;0.80;;;;;;;29.82;22.38;96818.47;5114764;28;20043;-61
2022/07/14 08:02:11;;;;;;;2.58;0.75;;;;;;;30.08;22.41;96827.31;5114878;28;20040;-61
2022/07/14 08:04:38;;;;;;;2.08;0.80;;;;;;;30.29;22.25;96823.19;5114941;28;20047;-61
2022/07/14 08:07:07;;;;;;;1.23;0.80;;;;;;;30.05;23.33;96827.66;5114774;28;20078;-62
2022/07/14 08:09:34;;;;;;;2.13;0.95;;;;;;;30.33;23.24;96813.69;5114629;28;20109;-61
2022/07/14 08:12:02;;;;;;;0.77;0.60;;;;;;;30.22;21.39;96815.78;5114681;28;20051;-61
2022/07/14 08:17:14;;;;;;;0.75;0.73;;;;;;;30.04;22.93;96834.06;5114625;28;20192;-62
2022/07/14 08:19:42;;;;;;;2.17;0.80;;;;;;;30.32;21.84;96829.06;5114559;28;20087;-62
2022/07/14 08:22:10;;;;;;;1.95;0.95;;;;;;;30.59;20.85;96829.59;5114480;28;20072;-62
2022/07/14 08:24:37;;;;;;;1.05;0.70;;;;;;;30.50;21.73;96826.09;5114532;28;20043;-62
2022/07/14 08:27:05;;;;;;;3.50;0.88;;;;;;;30.37;21.65;96820.44;5114368;28;20073;-62
2022/07/14 08:29:32;;;;;;;0.40;0.40;;;;;;;30.51;21.59;96818.81;5114305;28;20057;-61
2022/07/14 08:31:59;;;;;;;3.00;0.98;;;;;;;30.61;20.90;96815.91;5114300;28;20073;-62
2022/07/14 08:34:26;;;;;;;2.17;0.93;;;;;;;30.69;22.77;96815.84;5114228;28;20043;-62
2022/07/14 08:36:53;;;;;;;1.13;0.70;;;;;;;30.77;23.48;96815.81;5114255;28;20085;-62
2022/07/14 08:39:22;;;;;;;1.13;0.80;;;;;;;31.15;21.67;96811.44;5114037;28;20131;-61
2022/07/14 08:41:51;;;;;;;0.85;0.60;;;;;;;30.99;22.12;96817.81;5114093;27;20047;-61
2022/07/14 08:44:19;;;;;;;0.77;0.63;;;;;;;30.61;21.22;96819.44;5114070;28;20044;-61
2022/07/14 08:46:46;;;;;;;1.85;0.60;;;;;;;30.85;22.18;96814.91;5113810;28;20048;-61
2022/07/14 08:49:15;;;;;;;2.20;0.80;;;;;;;31.02;21.95;96810.22;5113821;28;20056;-61
2022/07/14 08:51:44;;;;;;;5.32;0.70;;;;;;;30.99;21.56;96810.56;5114150;28;20148;-61
2022/07/14 08:54:11;;;;;;;0.77;0.77;;;;;;;30.88;22.87;96805.63;5114354;28;20507;-61
2022/07/14 08:56:40;;;;;;;2.08;0.70;;;;;;;30.62;22.76;96812.19;5113998;27;20105;-61
2022/07/14 08:59:08;;;;;;;0.65;0.65;;;;;;;30.31;22.29;96808.50;5113922;28;20048;-61
2022/07/14 09:01:36;;;;;;;2.97;0.70;;;;;;;30.49;24.05;96810.91;5113979;28;20092;-61
2022/07/14 09:04:03;;;;;;;2.95;0.82;;;;;;;30.84;21.53;96801.56;5113798;28;20043;-61
2022/07/14 09:06:48;;;;;;;2.35;0.80;;;;;;;30.75;22.59;96800.78;5113915;28;20463;-61
2022/07/14 09:09:17;;;;;;;1.25;0.90;;;;;;;30.60;22.49;96790.78;5112883;28;20063;-61
2022/07/14 09:11:58;;;;;;;0.80;0.60;;;;;;;30.67;23.46;96790.06;5113846;28;20067;-61
2022/07/14 09:14:27;;;;;;;0.90;0.65;;;;;;;30.46;22.26;96789.69;5113614;28;20043;-61
2022/07/14 09:17:14;;;;;;;0.77;0.60;;;;;;;30.05;23.64;96789.91;5113559;28;20047;-61
2022/07/14 09:20:03;;;;;;;4.18;0.82;;;;;;;30.07;23.86;96788.69;5113659;28;20048;-61
2022/07/14 09:22:32;;;;;;;1.13;0.80;;;;;;;30.10;23.80;96782.13;5113558;28;20459;-61
2022/07/14 09:25:00;;;;;;;2.65;0.70;;;;;;;30.52;23.57;96778.19;5113674;28;20126;-61
2022/07/14 09:27:29;;;;;;;1.63;0.80;;;;;;;30.99;22.89;96778.19;5113604;28;20058;-61
2022/07/14 09:29:57;;;;;;;2.47;0.85;;;;;;;31.30;21.98;96776.34;5113562;28;20382;-61
2022/07/14 09:32:45;;;;;;;2.17;0.80;;;;;;;31.05;22.43;96778.44;5113519;28;20043;-61
2022/07/14 09:35:14;;;;;;;1.92;0.80;;;;;;;31.09;22.61;96769.81;5113559;28;20071;-61
2022/07/14 09:37:41;;;;;;;4.97;0.85;;;;;;;31.15;22.41;96773.63;5113254;28;20047;-61
2022/07/14 09:40:13;;;;;;;0.70;0.60;;;;;;;31.04;23.03;96774.94;5113388;28;20048;-61
2022/07/14 09:42:50;;;;;;;1.20;0.80;;;;;;;30.98;22.49;96778.34;5113382;28;20044;-61
2022/07/14 09:45:20;;;;;;;1.08;0.70;;;;;;;30.84;21.79;96771.88;5113381;28;20048;-61
2022/07/14 09:47:59;;;;;;;0.70;0.60;;;;;;;30.81;22.54;96769.56;5113258;28;20047;-61
2022/07/14 09:50:44;;;;;;;1.08;0.80;;;;;;;30.51;22.53;96779.22;5113269;28;20308;-61
2022/07/14 09:53:23;;;;;;;3.15;0.77;;;;;;;30.59;23.97;96772.06;5113316;28;20532;-62
2022/07/14 09:55:57;;;;;;;2.03;0.50;;;;;;;30.82;22.53;96773.94;5113196;28;20101;-61
2022/07/14 09:58:27;;;;;;;0.50;0.50;;;;;;;30.94;21.92;96767.06;5113153;28;20138;-61
2022/07/14 10:00:57;;;;;;;3.10;0.77;;;;;;;31.02;22.58;96761.63;5113108;28;20044;-61
2022/07/14 10:03:27;;;;;;;3.25;0.95;;;;;;;31.07;22.09;96765.63;5113185;28;20558;-61
2022/07/14 10:05:55;;;;;;;2.80;1.45;;;;;;;31.31;22.22;96751.03;5113187;28;20040;-61
2022/07/14 10:08:28;;;;;;;2.03;1.30;;;;;;;31.39;21.43;96750.09;5113176;28;20405;-61
2022/07/14 10:10:56;;;;;;;2.17;0.90;;;;;;;31.28;22.87;96763.03;5113007;28;20063;-61
2022/07/14 10:13:28;;;;;;;3.05;0.80;;;;;;;30.85;22.73;96766.31;5113039;28;20047;-61
2022/07/14 10:15:57;;;;;;;2.80;1.02;;;;;;;30.94;22.83;96758.16;5112977;28;20096;-61
2022/07/14 10:18:26;;;;;;;1.00;0.90;;;;;;;31.09;21.60;96753.59;5113029;28;20047;-61
2022/07/14 10:20:56;;;;;;;3.40;0.77;;;;;;;31.14;21.58;96748.50;5113687;28;20047;-61
2022/07/14 10:23:26;;;;;;;11.27;1.27;;;;;;;31.26;22.06;96743.47;5116838;28;20043;-61
2022/07/14 10:25:55;;;;;;;3.03;1.00;;;;;;;31.08;22.82;96741.13;5116848;28;20101;-61
2022/07/14 10:28:23;;;;;;;5.30;0.90;;;;;;;30.72;22.77;96747.16;5116645;27;20550;-61
2022/07/14 10:31:04;;;;;;;0.98;0.63;;;;;;;30.54;22.93;96742.91;5116532;28;20303;-61
2022/07/14 10:33:40;;;;;;;2.15;0.80;;;;;;;30.02;23.23;96740.72;5116609;28;20451;-61
2022/07/14 10:36:15;;;;;;;1.05;0.70;;;;;;;29.95;23.07;96733.53;5116645;28;20061;-61
2022/07/14 10:39:03;;;;;;;2.45;1.05;;;;;;;30.31;23.65;96734.84;5116647;28;20040;-60
2022/07/14 10:42:05;;;;;;;2.15;0.90;;;;;;;30.78;22.08;96732.97;5116546;28;20468;-61
2022/07/14 10:44:35;;;;;;;1.77;0.80;;;;;;;31.05;23.03;96733.41;5083549;28;20044;-62
2022/07/14 10:47:11;;;;;;;5.60;0.77;;;;;;;30.83;22.50;96733.28;5116219;28;20044;-61
2022/07/14 10:50:07;;;;;;;0.70;0.70;;;;;;;30.91;22.03;96729.63;5116373;28;20048;-61
2022/07/14 10:52:37;;;;;;;2.78;1.00;;;;;;;30.87;21.82;96728.34;5116274;27;20443;-61
2022/07/14 10:55:13;;;;;;;2.90;0.90;;;;;;;30.67;22.93;96717.19;5116160;28;20052;-61
2022/07/14 10:57:41;;;;;;;4.43;0.80;;;;;;;30.84;24.05;96726.84;5116198;28;20132;-61
2022/07/14 11:00:29;;;;;;;2.75;0.80;;;;;;;30.74;24.38;96737.03;5116057;28;20054;-61
2022/07/14 11:03:20;;;;;;;0.50;0.50;;;;;;;30.74;23.17;96723.53;5116030;28;20100;-61
2022/07/14 11:06:12;;;;;;;2.85;1.13;;;;;;;30.73;23.26;96714.59;5115937;28;20050;-61
2022/07/14 11:08:41;;;;;;;3.28;1.00;;;;;;;30.85;23.83;96715.03;5115899;28;20043;-62
2022/07/14 11:11:17;;;;;;;2.92;0.80;;;;;;;30.80;23.63;96722.84;5115784;27;20501;-62
2022/07/14 11:14:05;;;;;;;4.50;0.85;;;;;;;30.68;22.83;96713.47;5115884;28;20082;-61
2022/07/14 11:16:56;;;;;;;2.20;0.80;;;;;;;30.88;23.04;96717.34;5115757;28;20093;-61
2022/07/14 11:19:28;;;;;;;4.07;0.85;;;;;;;31.15;22.74;96704.25;5115850;27;20055;-61
2022/07/14 11:22:17;;;;;;;1.23;0.70;;;;;;;31.31;23.16;96707.81;5115678;28;20039;-61
2022/07/14 11:24:49;;;;;;;3.97;0.68;;;;;;;31.28;22.99;96708.19;5115612;28;20374;-61
2022/07/14 11:27:39;;;;;;;1.60;0.80;;;;;;;30.95;22.95;96711.22;5115663;28;20052;-61
2022/07/14 11:30:27;;;;;;;1.08;0.80;;;;;;;30.72;22.29;96703.97;5115474;28;20477;-62
2022/07/14 11:33:03;;;;;;;1.02;0.77;;;;;;;30.62;24.24;96707.78;5114574;28;20550;-61
2022/07/14 11:38:31;;;;;;;2.47;0.90;;;;;;;30.27;22.78;96712.78;5115534;28;20054;-62
2022/07/14 11:40:59;;;;;;;0.80;0.70;;;;;;;30.17;23.46;96709.47;5115357;27;20104;-61
2022/07/14 11:43:48;;;;;;;3.15;0.73;;;;;;;30.30;23.70;96703.47;5115298;28;20487;-61
2022/07/14 11:46:17;;;;;;;2.22;0.85;;;;;;;30.63;24.58;96703.22;5115197;28;20039;-61
2022/07/14 11:48:46;;;;;;;1.20;0.88;;;;;;;30.68;22.85;96699.97;5114862;28;20429;-61
2022/07/14 11:51:20;;;;;;;4.30;0.90;;;;;;;30.82;22.70;96693.78;5115075;28;20058;-61
2022/07/14 11:53:54;;;;;;;1.45;0.70;;;;;;;31.13;22.66;96682.00;5114897;28;20047;-62
2022/07/14 11:56:24;;;;;;;1.52;0.80;;;;;;;30.89;22.14;96694.75;5114964;28;20052;-61
2022/07/14 11:58:51;;;;;;;10.32;1.20;;;;;;;30.93;23.52;96683.56;5115038;28;20117;-61
2022/07/14 12:01:20;;;;;;;0.98;0.80;;;;;;;31.16;22.98;96678.09;5114916;28;20078;-61